Time;durP1;ratioP1;P1;durP2;ratioP2;P2;SDS_P1;SDS_P2;PMS_P1;PMS_P2;Temp;Humidity;BMP_temperature;BMP_pressure;BME280_temperature;BME280_humidity;BME280_pressure;Samples;Min_cycle;Max_cycle;Signal;HPM_P1;HPM_P2
2023/08/04 00:05:10;;;;;;;2.93;1.40;;;;;;;18.03;83.97;98562.38;7275121;40;20253;31
2023/08/04 00:10:45;;;;;;;4.55;1.65;;;;;;;18.05;84.30;98578.47;7231347;40;20334;31
2023/08/04 00:16:20;;;;;;;3.80;1.90;;;;;;;17.99;84.47;98563.84;7186196;40;20258;31
2023/08/04 00:21:56;;;;;;;2.10;1.47;;;;;;;17.93;84.65;98564.78;7174824;40;20351;31
2023/08/04 00:27:17;;;;;;;3.40;1.70;;;;;;;18.00;84.26;98568.25;7173581;40;20274;31
2023/08/04 00:37:56;;;;;;;2.93;1.60;;;;;;;17.84;84.72;98571.62;7213426;39;20405;31
2023/08/04 00:48:37;;;;;;;3.30;1.83;;;;;;;17.69;84.80;98563.81;7269395;40;20261;31
2023/08/04 00:54:08;;;;;;;2.97;1.80;;;;;;;17.57;85.68;98563.72;7234869;40;20261;31
2023/08/04 00:59:40;;;;;;;4.27;1.90;;;;;;;17.48;86.26;98566.97;7213167;40;20280;31
2023/08/04 01:05:15;;;;;;;2.10;1.60;;;;;;;17.48;85.93;98564.25;7195828;40;20266;31
2023/08/04 01:10:51;;;;;;;4.85;2.00;;;;;;;17.50;85.87;98571.16;7164902;40;20369;31
2023/08/04 01:16:23;;;;;;;3.53;1.67;;;;;;;17.57;85.75;98563.72;7233517;40;20261;31
2023/08/04 01:21:59;;;;;;;4.10;1.60;;;;;;;17.68;84.86;98558.63;7251706;40;20375;31
2023/08/04 01:27:31;;;;;;;4.20;1.63;;;;;;;17.79;84.70;98571.47;7224142;40;21201;31
2023/08/04 01:33:03;;;;;;;2.53;1.70;;;;;;;17.83;83.69;98562.59;7214731;40;20280;31
2023/08/04 01:38:36;;;;;;;4.97;1.80;;;;;;;17.83;84.44;98559.87;7213206;40;20256;31
2023/08/04 01:43:57;;;;;;;2.25;1.55;;;;;;;17.68;85.07;98564.06;7212795;40;20364;31
2023/08/04 01:49:28;;;;;;;5.13;1.57;;;;;;;17.58;85.67;98561.88;7235780;40;20265;31
2023/08/04 01:55:04;;;;;;;2.57;1.60;;;;;;;17.56;85.72;98574.84;7203960;40;20314;31
2023/08/04 02:06:23;;;;;;;2.33;1.62;;;;;;;17.50;86.25;98565.69;7177884;40;20258;31
2023/08/04 02:12:00;;;;;;;2.40;1.40;;;;;;;17.59;85.41;98569.00;7187828;40;20291;31
2023/08/04 02:17:18;;;;;;;5.93;1.67;;;;;;;17.64;85.19;98571.03;7255225;40;20407;31
2023/08/04 02:22:34;;;;;;;2.07;1.60;;;;;;;17.68;85.39;98570.34;7255278;40;20269;31
2023/08/04 02:28:10;;;;;;;1.73;1.50;;;;;;;17.57;86.11;98569.16;7240510;40;20290;31
2023/08/04 02:33:45;;;;;;;2.70;1.68;;;;;;;17.57;85.20;98571.91;7232653;40;20350;31
2023/08/04 02:39:20;;;;;;;4.87;2.10;;;;;;;17.62;85.27;98570.41;7176587;40;20293;31
2023/08/04 02:44:56;;;;;;;3.13;1.57;;;;;;;17.48;85.71;98575.97;7173556;40;20255;31
2023/08/04 02:50:31;;;;;;;2.77;1.53;;;;;;;17.44;86.63;98573.94;7161547;40;20297;31
2023/08/04 02:55:48;;;;;;;4.13;1.60;;;;;;;17.39;86.36;98571.03;7143379;40;20243;31
2023/08/04 03:01:24;;;;;;;5.57;2.20;;;;;;;17.24;86.81;98576.88;7162476;40;20274;31
2023/08/04 03:12:03;;;;;;;3.93;1.83;;;;;;;17.29;86.22;98559.84;7181344;40;20272;31
2023/08/04 03:17:36;;;;;;;3.27;2.10;;;;;;;17.35;86.50;98567.09;7218070;40;20368;31
2023/08/04 03:22:53;;;;;;;4.43;2.13;;;;;;;17.45;85.32;98567.44;6990109;40;21342;31
2023/08/04 03:28:11;;;;;;;5.28;2.00;;;;;;;17.53;85.61;98569.84;7234624;40;20319;31
2023/08/04 03:33:44;;;;;;;5.53;2.30;;;;;;;17.53;85.28;98581.59;7211081;40;20390;31
2023/08/04 03:44:08;;;;;;;3.23;2.23;;;;;;;17.57;85.34;98585.53;7245792;40;20277;31
2023/08/04 03:54:44;;;;;;;4.25;2.20;;;;;;;17.59;84.87;98584.50;7288952;39;20245;31
2023/08/04 04:00:13;;;;;;;6.00;2.40;;;;;;;17.60;85.16;98589.72;7235140;40;20312;31
2023/08/04 04:05:33;;;;;;;3.17;2.30;;;;;;;17.60;85.39;98591.59;7180919;40;20284;31
2023/08/04 04:11:10;;;;;;;3.73;2.07;;;;;;;17.61;85.00;98588.66;7170316;40;20373;31
2023/08/04 04:21:49;;;;;;;3.57;2.57;;;;;;;17.66;85.40;98604.31;7202747;40;20281;31
2023/08/04 04:27:20;;;;;;;5.43;2.67;;;;;;;17.67;84.43;98603.28;7236708;40;20269;31
2023/08/04 04:32:52;;;;;;;3.70;2.30;;;;;;;17.68;84.85;98610.41;7227046;40;20341;31
2023/08/04 04:38:27;;;;;;;3.17;1.93;;;;;;;17.63;86.12;98608.34;7232201;40;20252;31
2023/08/04 04:43:58;;;;;;;5.53;2.67;;;;;;;17.60;85.27;98614.22;7187930;40;20246;31
2023/08/04 04:49:33;;;;;;;4.50;2.50;;;;;;;17.55;86.24;98627.69;7221430;40;20268;31
2023/08/04 04:54:50;;;;;;;6.27;2.97;;;;;;;17.57;86.76;98623.69;7199140;40;20397;31
2023/08/04 05:05:28;;;;;;;5.67;3.57;;;;;;;17.63;86.33;98632.88;7180319;40;20437;31
2023/08/04 05:11:02;;;;;;;5.25;3.65;;;;;;;17.69;85.98;98636.56;7182522;40;20278;31
2023/08/04 05:16:37;;;;;;;6.53;3.10;;;;;;;17.73;86.05;98635.06;7227478;40;20261;31
2023/08/04 05:22:11;;;;;;;5.70;3.20;;;;;;;17.82;85.69;98641.88;7175106;40;20321;31
2023/08/04 05:27:28;;;;;;;3.80;3.30;;;;;;;17.87;84.92;98637.44;7173080;40;20263;31
2023/08/04 05:32:46;;;;;;;5.50;3.57;;;;;;;17.89;85.43;98648.12;7172351;40;20245;31
2023/08/04 05:38:18;;;;;;;8.17;3.07;;;;;;;17.96;85.23;98644.25;7190809;40;20259;31
2023/08/04 05:43:53;;;;;;;7.00;3.53;;;;;;;18.10;84.67;98655.84;7245915;40;20250;31
2023/08/04 05:49:13;;;;;;;5.07;3.47;;;;;;;18.14;84.67;98651.59;7220419;40;20241;31
2023/08/04 05:54:46;;;;;;;7.17;3.50;;;;;;;18.14;84.44;98656.22;7232781;40;20331;31
2023/08/04 06:00:08;;;;;;;5.47;3.83;;;;;;;18.22;84.55;98651.28;7172096;40;20246;31
2023/08/04 06:05:40;;;;;;;4.87;2.90;;;;;;;18.26;84.44;98659.81;7191591;40;20249;31
2023/08/04 06:11:16;;;;;;;5.77;3.30;;;;;;;18.28;84.38;98657.72;7147581;40;20239;31
2023/08/04 06:16:51;;;;;;;6.87;3.43;;;;;;;18.32;84.62;98665.22;7157383;40;20268;31
2023/08/04 06:27:31;;;;;;;6.13;3.70;;;;;;;18.27;84.42;98665.06;7203898;40;20243;31
2023/08/04 06:33:06;;;;;;;4.95;3.05;;;;;;;18.32;85.16;98680.75;7194034;40;20281;31
2023/08/04 06:38:26;;;;;;;4.35;3.05;;;;;;;18.32;85.51;98680.75;7192555;40;20258;31
2023/08/04 06:44:02;;;;;;;4.27;2.40;;;;;;;18.38;85.16;98686.16;7212651;40;20471;31
2023/08/04 06:49:35;;;;;;;5.40;2.60;;;;;;;18.45;85.04;98686.03;7285384;40;20429;31
2023/08/04 06:55:06;;;;;;;5.10;2.57;;;;;;;18.43;85.11;98689.00;7240994;40;20256;31
2023/08/04 07:00:40;;;;;;;3.80;2.70;;;;;;;18.43;85.14;98697.19;7186182;40;20243;31
2023/08/04 07:06:01;;;;;;;7.00;2.83;;;;;;;18.49;85.04;98700.91;7213777;40;20264;31
2023/08/04 07:11:32;;;;;;;4.00;2.47;;;;;;;18.59;84.00;98705.84;7224469;40;20246;31
2023/08/04 07:17:08;;;;;;;3.70;2.40;;;;;;;18.57;83.83;98706.06;7224377;40;20347;31
2023/08/04 07:22:29;;;;;;;5.10;2.70;;;;;;;18.63;83.53;98710.63;7212800;40;20258;31
2023/08/04 07:27:49;;;;;;;7.00;3.10;;;;;;;18.62;82.99;98714.41;7275972;39;20280;31
2023/08/04 07:33:20;;;;;;;3.57;2.50;;;;;;;18.78;82.51;98711.03;7266099;40;20241;31
2023/08/04 07:38:41;;;;;;;5.50;3.00;;;;;;;18.87;83.14;98709.62;7264343;40;20265;31
2023/08/04 07:43:58;;;;;;;5.30;2.80;;;;;;;18.97;82.11;98710.97;7218516;40;20276;31
2023/08/04 07:49:33;;;;;;;5.60;2.80;;;;;;;19.02;81.36;98719.31;7269564;40;20272;31
2023/08/04 07:54:54;;;;;;;4.60;2.40;;;;;;;19.09;81.65;98720.03;7220251;40;20245;31
2023/08/04 08:00:29;;;;;;;2.80;2.20;;;;;;;19.24;80.57;98725.91;7264267;40;20245;31
2023/08/04 08:06:05;;;;;;;3.30;2.30;;;;;;;19.34;79.46;98713.34;7252810;40;20261;31
2023/08/04 08:11:37;;;;;;;2.87;2.30;;;;;;;19.52;80.72;98730.78;7243726;40;20269;31
2023/08/04 08:16:58;;;;;;;5.27;2.30;;;;;;;19.41;79.32;98723.34;7202494;40;20262;31
2023/08/04 08:22:33;;;;;;;3.60;2.43;;;;;;;19.44;79.59;98729.19;7214813;40;20256;31
2023/08/04 08:28:08;;;;;;;2.95;2.20;;;;;;;19.38;78.20;98749.25;7128132;40;20246;31
2023/08/04 08:33:40;;;;;;;3.30;2.40;;;;;;;19.20;79.98;98749.31;7191239;40;20266;31
2023/08/04 08:39:16;;;;;;;4.00;2.15;;;;;;;18.89;79.86;98759.41;7255147;40;21863;31
2023/08/04 08:44:52;;;;;;;1.97;1.70;;;;;;;18.68;80.34;98761.81;7252687;40;20419;31
2023/08/04 08:50:27;;;;;;;2.00;1.80;;;;;;;18.49;82.44;98771.88;7251157;40;20527;31
2023/08/04 08:56:03;;;;;;;1.77;1.63;;;;;;;18.35;83.68;98775.78;7253502;40;20257;31
2023/08/04 09:01:38;;;;;;;4.62;1.90;;;;;;;18.32;84.64;98784.44;7232427;40;20284;31
2023/08/04 09:07:11;;;;;;;2.13;1.80;;;;;;;18.38;85.86;98783.56;7235170;40;20312;31
2023/08/04 09:12:48;;;;;;;2.30;1.70;;;;;;;18.38;86.30;98792.56;7243570;40;20397;31
2023/08/04 09:18:21;;;;;;;2.23;1.87;;;;;;;18.40;86.32;98787.72;7202727;40;20254;31
2023/08/04 09:23:57;;;;;;;2.70;1.90;;;;;;;18.44;87.19;98793.53;7190688;40;20265;31
2023/08/04 09:34:37;;;;;;;2.17;1.97;;;;;;;18.34;88.28;98806.91;7164691;40;20556;31
2023/08/04 09:40:12;;;;;;;2.20;1.83;;;;;;;18.27;87.12;98812.41;7220722;40;20425;31
2023/08/04 09:45:47;;;;;;;3.03;2.00;;;;;;;18.33;86.83;98819.69;7223055;40;20250;31
2023/08/04 09:51:21;;;;;;;3.03;2.20;;;;;;;18.48;85.94;98819.31;7250955;40;20332;31
2023/08/04 09:56:55;;;;;;;2.47;2.27;;;;;;;18.37;85.58;98814.63;7030297;40;21300;31
2023/08/04 10:02:28;;;;;;;3.57;2.83;;;;;;;18.34;86.51;98817.81;7242042;40;20254;31
2023/08/04 10:08:01;;;;;;;3.57;2.97;;;;;;;18.33;86.27;98825.16;7203991;40;20275;31
2023/08/04 10:13:36;;;;;;;3.15;2.80;;;;;;;18.35;86.66;98822.19;7187482;40;20517;31
2023/08/04 10:19:11;;;;;;;4.73;3.03;;;;;;;18.41;86.84;98829.47;7182018;40;20259;31
2023/08/04 10:24:44;;;;;;;3.35;2.90;;;;;;;18.43;86.96;98811.81;7134562;40;20271;31
2023/08/04 10:35:23;;;;;;;3.13;2.53;;;;;;;18.52;86.01;98826.00;7211162;40;20278;31
2023/08/04 10:46:10;;;;;;;3.68;2.76;;;;;;;18.74;87.63;98837.31;7239476;40;21290;31
2023/08/04 10:51:26;;;;;;;2.70;2.50;;;;;;;18.83;86.54;98835.97;7250700;40;20261;31
2023/08/04 10:57:01;;;;;;;3.10;2.20;;;;;;;19.00;85.67;98842.47;7237368;40;20268;31
2023/08/04 11:02:37;;;;;;;3.13;2.60;;;;;;;18.94;86.01;98845.28;7293855;40;20276;31
2023/08/04 11:13:28;;;;;;;3.10;2.80;;;;;;;18.97;86.05;98844.81;7240401;40;20266;31
2023/08/04 11:24:08;;;;;;;2.60;2.40;;;;;;;18.96;83.80;98857.66;7261135;40;20427;31
2023/08/04 11:34:32;;;;;;;3.30;3.00;;;;;;;18.86;84.88;98863.66;7283185;39;20283;31
2023/08/04 11:45:12;;;;;;;4.60;3.74;;;;;;;18.82;83.88;98867.88;7279612;39;20383;31
2023/08/04 11:50:47;;;;;;;5.35;4.20;;;;;;;18.68;82.75;98874.59;7276969;40;20249;31
2023/08/04 12:01:38;;;;;;;4.77;4.00;;;;;;;18.91;81.78;98858.34;7252683;40;20411;31
2023/08/04 12:07:15;;;;;;;4.70;4.05;;;;;;;19.23;81.19;98863.63;7210319;40;20358;31
2023/08/04 12:12:51;;;;;;;5.40;4.53;;;;;;;19.41;81.44;98866.31;7226526;40;21253;31
2023/08/04 12:18:39;;;;;;;7.23;5.37;;;;;;;19.51;79.47;98872.09;7178072;40;20353;31
2023/08/04 12:23:58;;;;;;;6.75;5.55;;;;;;;19.95;78.76;98867.22;7166802;40;20254;31
2023/08/04 12:29:36;;;;;;;6.40;4.80;;;;;;;20.25;77.07;98860.59;7197700;40;20286;31
2023/08/04 12:35:09;;;;;;;7.77;4.73;;;;;;;20.27;75.75;98865.84;7157252;40;20340;31
2023/08/04 12:40:30;;;;;;;9.27;5.20;;;;;;;20.34;76.90;98850.16;7156255;40;20334;31
2023/08/04 12:46:01;;;;;;;6.73;4.60;;;;;;;20.57;77.18;98852.06;7196041;40;20340;31
2023/08/04 12:51:37;;;;;;;4.67;3.73;;;;;;;20.64;72.80;98856.34;7173196;40;20725;31
2023/08/04 12:56:57;;;;;;;4.83;3.70;;;;;;;20.71;73.61;98863.63;7169976;40;20277;31
2023/08/04 13:02:29;;;;;;;4.70;4.00;;;;;;;20.81;72.69;98866.56;7224403;40;20286;31
2023/08/04 13:08:05;;;;;;;5.80;4.75;;;;;;;21.01;72.86;98867.00;7286445;39;20352;31
2023/08/04 13:13:40;;;;;;;5.83;4.30;;;;;;;21.11;72.07;98875.44;7264771;40;20261;31
2023/08/04 13:18:59;;;;;;;9.47;4.83;;;;;;;21.30;71.60;98876.12;7217406;40;20257;31
2023/08/04 13:24:30;;;;;;;4.70;3.95;;;;;;;21.22;70.82;98871.88;7194471;40;20260;31
2023/08/04 13:35:06;;;;;;;5.20;4.35;;;;;;;21.22;69.83;98862.81;7204533;40;21038;31
2023/08/04 13:40:39;;;;;;;5.47;4.25;;;;;;;21.24;68.03;98863.41;7276671;40;20279;31
2023/08/04 13:46:12;;;;;;;6.47;4.45;;;;;;;21.25;70.00;98865.06;7212711;40;20242;31
2023/08/04 13:51:32;;;;;;;6.23;4.60;;;;;;;21.10;69.67;98871.03;7212597;40;20352;31
2023/08/04 14:02:10;;;;;;;5.92;4.76;;;;;;;21.23;69.96;98872.69;7243496;39;21125;31
2023/08/04 14:07:42;;;;;;;7.50;4.50;;;;;;;21.37;68.57;98871.34;7239868;40;20257;31
2023/08/04 14:13:14;;;;;;;6.02;4.26;;;;;;;21.21;67.87;98875.69;7214132;40;20992;31
2023/08/04 14:18:33;;;;;;;7.97;5.40;;;;;;;21.20;69.90;98874.00;7214524;40;20254;31
2023/08/04 14:24:08;;;;;;;6.00;4.00;;;;;;;21.14;67.80;98877.75;7222157;40;20268;31
2023/08/04 14:29:41;;;;;;;6.78;4.37;;;;;;;20.72;67.71;98879.78;7214696;40;20242;31
2023/08/04 14:34:59;;;;;;;8.65;4.90;;;;;;;20.57;69.49;98888.50;7189499;40;20356;31
2023/08/04 14:40:35;;;;;;;7.70;5.10;;;;;;;20.38;69.74;98892.44;7215352;40;20253;31
2023/08/04 14:46:11;;;;;;;7.10;4.60;;;;;;;20.38;68.84;98888.84;7206145;40;20265;31
2023/08/04 14:56:50;;;;;;;7.25;4.00;;;;;;;20.23;70.65;98892.00;7270989;40;20350;31
2023/08/04 15:02:11;;;;;;;5.00;3.90;;;;;;;20.34;70.31;98893.13;7229279;40;20280;31
2023/08/04 15:07:31;;;;;;;6.55;3.95;;;;;;;20.37;69.13;98888.00;7254467;40;20348;31
2023/08/04 15:13:03;;;;;;;3.93;3.53;;;;;;;20.33;68.46;98886.81;7296257;40;20246;31
2023/08/04 15:18:39;;;;;;;5.00;2.87;;;;;;;20.31;69.79;98869.81;7244569;40;20308;31
2023/08/04 15:23:56;;;;;;;4.53;3.50;;;;;;;20.48;69.50;98873.50;7260053;40;20245;31
2023/08/04 15:29:32;;;;;;;4.73;3.40;;;;;;;20.51;68.62;98874.94;7229988;40;20351;31
2023/08/04 15:34:52;;;;;;;3.90;3.50;;;;;;;20.62;67.49;98885.88;7180689;40;20263;31
2023/08/04 15:40:11;;;;;;;6.47;3.40;;;;;;;20.64;69.19;98894.69;7178107;40;20529;31
2023/08/04 15:45:46;;;;;;;4.65;3.80;;;;;;;20.54;68.16;98910.87;7242829;40;20262;31
2023/08/04 15:51:18;;;;;;;4.63;3.50;;;;;;;20.68;69.34;98912.31;7278717;40;20315;31
2023/08/04 15:56:53;;;;;;;5.53;3.83;;;;;;;20.75;69.05;98916.84;7293704;39;20346;31
2023/08/04 16:02:26;;;;;;;9.17;3.70;;;;;;;20.65;67.46;98921.00;7252400;40;20302;31
2023/08/04 16:07:58;;;;;;;7.40;3.52;;;;;;;20.39;67.65;98924.22;7228985;40;20259;31
2023/08/04 16:13:30;;;;;;;6.28;3.45;;;;;;;20.42;69.13;98929.22;7202555;40;20328;31
2023/08/04 16:19:03;;;;;;;4.60;3.90;;;;;;;20.26;69.90;98943.56;7194880;40;20336;31
2023/08/04 16:24:23;;;;;;;5.47;3.70;;;;;;;20.20;70.02;98941.75;7194000;40;20414;31
2023/08/04 16:29:58;;;;;;;6.83;3.70;;;;;;;20.24;70.17;98945.69;7211805;40;20249;31
2023/08/04 16:35:29;;;;;;;4.22;3.37;;;;;;;20.19;69.50;98951.88;7184266;40;20277;31
2023/08/04 16:41:04;;;;;;;5.70;3.50;;;;;;;20.08;68.98;98954.59;7231178;40;20316;31
2023/08/04 16:46:39;;;;;;;7.57;4.03;;;;;;;20.18;69.49;98955.66;7180477;40;20281;31
2023/08/04 16:52:15;;;;;;;5.20;3.80;;;;;;;20.27;68.50;98966.31;6930111;40;20674;31
2023/08/04 16:57:50;;;;;;;6.13;3.60;;;;;;;20.35;68.29;98961.34;7087784;40;20407;31
2023/08/04 17:03:22;;;;;;;5.70;3.63;;;;;;;20.22;66.54;98956.91;7172345;40;20358;31
2023/08/04 17:08:58;;;;;;;6.80;3.60;;;;;;;20.15;68.37;98960.78;7211329;40;20433;31
2023/08/04 17:14:18;;;;;;;5.45;3.70;;;;;;;20.20;68.15;98963.66;7138744;40;20270;31
2023/08/04 17:19:38;;;;;;;6.65;3.50;;;;;;;20.13;68.04;98974.72;7186994;40;20284;31
2023/08/04 17:25:15;;;;;;;5.37;4.10;;;;;;;20.13;67.89;98976.62;7226201;40;21897;31
2023/08/04 17:30:34;;;;;;;5.27;4.17;;;;;;;20.14;67.64;98981.03;7227501;40;20258;31
2023/08/04 17:36:09;;;;;;;4.77;4.23;;;;;;;20.14;67.88;98983.75;7231928;40;20261;31
2023/08/04 17:41:42;;;;;;;5.93;4.10;;;;;;;20.11;69.60;98993.25;7253183;40;20378;31
2023/08/04 17:47:02;;;;;;;7.50;4.10;;;;;;;20.07;68.87;98981.13;7170879;40;20246;31
2023/08/04 17:52:38;;;;;;;6.27;3.90;;;;;;;20.07;68.22;98988.47;7181515;40;20250;31
2023/08/04 17:58:14;;;;;;;5.10;4.07;;;;;;;19.99;68.61;98989.66;7193166;40;20776;31
2023/08/04 18:03:49;;;;;;;5.45;4.10;;;;;;;19.98;70.41;98990.72;7167361;40;20354;31
2023/08/04 18:09:24;;;;;;;5.20;3.83;;;;;;;19.94;70.56;98997.72;7213367;40;20280;31
2023/08/04 18:15:00;;;;;;;4.40;4.00;;;;;;;19.94;70.94;99010.56;7184061;40;20247;31
2023/08/04 18:20:35;;;;;;;6.65;4.10;;;;;;;19.90;71.97;99007.47;7191640;40;20285;31
2023/08/04 18:26:10;;;;;;;5.73;3.77;;;;;;;19.88;72.01;99008.78;7193484;40;20273;31
2023/08/04 18:31:46;;;;;;;5.70;3.80;;;;;;;19.86;73.44;99019.09;7158312;40;20266;31
2023/08/04 18:37:21;;;;;;;6.03;3.90;;;;;;;19.86;73.12;99030.03;7143207;40;20363;31
2023/08/04 18:42:56;;;;;;;6.63;3.43;;;;;;;19.88;72.27;99031.47;7192925;40;20250;31
2023/08/04 18:48:32;;;;;;;4.63;3.87;;;;;;;19.86;73.63;99030.03;7163954;40;20274;31
2023/08/04 18:53:52;;;;;;;6.67;3.73;;;;;;;19.85;73.46;99039.31;7153833;40;20263;31
2023/08/04 18:59:12;;;;;;;7.60;3.80;;;;;;;19.80;72.85;99037.25;7172553;40;21905;31
2023/08/04 19:04:48;;;;;;;4.83;4.03;;;;;;;19.70;74.36;99056.13;7258118;40;20398;31
2023/08/04 19:10:21;;;;;;;4.80;3.57;;;;;;;19.63;75.51;99067.12;7244171;40;20250;31
2023/08/04 19:15:56;;;;;;;5.37;3.77;;;;;;;19.57;74.55;99062.56;7264532;40;20277;31
2023/08/04 19:21:32;;;;;;;5.90;3.50;;;;;;;19.49;75.03;99062.03;7224534;40;20344;31
2023/08/04 19:26:53;;;;;;;6.57;3.70;;;;;;;19.51;75.83;99071.69;7213994;40;20264;31
2023/08/04 19:32:13;;;;;;;4.60;3.70;;;;;;;19.51;76.16;99074.44;7217132;40;20261;31
2023/08/04 19:37:48;;;;;;;5.30;3.40;;;;;;;19.53;76.42;99077.75;7237472;40;20284;31
2023/08/04 19:43:07;;;;;;;5.13;3.80;;;;;;;19.52;76.27;99078.84;7224100;40;22040;31
2023/08/04 19:48:40;;;;;;;5.17;3.83;;;;;;;19.44;75.82;99070.91;7213157;40;20344;31
2023/08/04 19:54:16;;;;;;;6.97;3.60;;;;;;;19.42;76.80;99078.47;7232260;40;20253;31
2023/08/04 19:59:48;;;;;;;6.37;3.50;;;;;;;19.38;76.98;99069.06;7215969;40;20242;31
2023/08/04 20:05:21;;;;;;;5.23;3.60;;;;;;;19.38;75.64;99085.47;7131241;40;20278;31
2023/08/04 20:16:01;;;;;;;6.60;3.80;;;;;;;19.23;77.34;99093.16;7158952;40;20272;31
2023/08/04 20:21:36;;;;;;;5.33;3.60;;;;;;;19.22;76.15;99089.59;7177674;40;20261;31
2023/08/04 20:26:54;;;;;;;4.87;3.30;;;;;;;19.20;75.93;99093.63;7211484;40;20250;31
2023/08/04 20:32:26;;;;;;;5.33;3.00;;;;;;;19.21;76.21;99098.88;7212334;40;20249;31
2023/08/04 20:37:47;;;;;;;5.63;3.77;;;;;;;19.21;75.68;99109.81;7177370;40;20267;31
2023/08/04 20:43:04;;;;;;;3.97;3.17;;;;;;;19.21;76.03;99119.91;7153379;40;20290;31
2023/08/04 20:48:40;;;;;;;6.07;3.50;;;;;;;19.15;75.65;99110.69;7159441;40;20296;31
2023/08/04 20:59:19;;;;;;;4.97;3.33;;;;;;;19.15;75.84;99118.91;7252460;40;20295;31
2023/08/04 21:04:55;;;;;;;5.20;3.60;;;;;;;19.10;74.24;99131.53;7227659;40;20258;31
2023/08/04 21:10:31;;;;;;;5.83;3.43;;;;;;;19.02;75.54;99129.09;7233604;40;20339;31
2023/08/04 21:16:05;;;;;;;5.65;3.10;;;;;;;19.05;75.31;99132.22;7234131;40;20265;31
2023/08/04 21:21:41;;;;;;;5.33;3.50;;;;;;;19.01;75.84;99141.06;7246020;40;20497;31
2023/08/04 21:27:16;;;;;;;5.60;3.20;;;;;;;19.01;75.01;99154.75;7209501;40;20254;31
2023/08/04 21:32:52;;;;;;;7.20;3.70;;;;;;;19.02;75.16;99179.13;7174834;40;20312;31
2023/08/04 21:38:28;;;;;;;5.33;3.57;;;;;;;19.02;76.04;99176.38;7152082;40;20261;31
2023/08/04 21:43:48;;;;;;;5.50;3.95;;;;;;;19.00;75.07;99181.22;7203535;40;20255;31
2023/08/04 21:49:08;;;;;;;8.87;3.30;;;;;;;18.97;76.08;99181.66;7276182;39;20350;31
2023/08/04 21:54:44;;;;;;;5.57;3.50;;;;;;;19.02;75.67;99187.31;7301493;39;20252;31
2023/08/04 22:00:22;;;;;;;4.57;3.57;;;;;;;19.00;74.07;99185.87;7253275;40;20368;31
2023/08/04 22:05:39;;;;;;;8.50;3.40;;;;;;;18.94;73.29;99187.59;7218879;40;20379;31
2023/08/04 22:11:22;;;;;;;5.65;3.30;;;;;;;18.84;73.49;99195.41;7163700;40;20260;31
2023/08/04 22:16:57;;;;;;;3.63;2.93;;;;;;;18.79;73.10;99189.78;7177303;40;20261;31
2023/08/04 22:22:32;;;;;;;5.50;3.43;;;;;;;18.72;74.06;99186.25;7198918;40;20262;31
2023/08/04 22:28:08;;;;;;;4.50;3.00;;;;;;;18.68;73.44;99183.13;7177822;40;20282;31
2023/08/04 22:33:43;;;;;;;6.70;3.10;;;;;;;18.57;73.51;99178.34;7194179;40;20265;31
2023/08/04 22:39:15;;;;;;;3.47;3.00;;;;;;;18.57;73.95;99166.59;7224409;40;22333;31
2023/08/04 22:44:39;;;;;;;4.82;3.00;;;;;;;18.60;73.49;99167.00;7247799;40;21142;31
2023/08/04 22:49:59;;;;;;;4.03;3.20;;;;;;;18.68;73.75;99164.03;7183091;40;20338;31
2023/08/04 22:55:34;;;;;;;5.83;3.40;;;;;;;18.64;72.92;99146.41;7192693;40;20512;31
2023/08/04 23:01:10;;;;;;;4.70;3.20;;;;;;;18.55;72.78;99136.78;7141294;40;20246;31
2023/08/04 23:06:30;;;;;;;5.60;3.00;;;;;;;18.45;73.34;99130.94;7203515;40;20265;31
2023/08/04 23:11:47;;;;;;;5.37;2.70;;;;;;;18.37;72.52;99112.94;7059212;40;21404;31
2023/08/04 23:17:21;;;;;;;6.70;3.13;;;;;;;18.32;72.99;99106.44;7263708;40;20373;31
2023/08/04 23:22:56;;;;;;;5.50;2.80;;;;;;;18.18;73.65;99096.66;7219177;40;20265;31
2023/08/04 23:28:28;;;;;;;6.17;3.10;;;;;;;18.08;74.00;99093.56;7193182;40;20257;31
2023/08/04 23:39:08;;;;;;;4.90;2.80;;;;;;;17.87;73.43;99084.63;7180124;40;20263;31
2023/08/04 23:44:43;;;;;;;3.93;2.80;;;;;;;17.91;73.25;99071.37;7212915;40;20366;31
2023/08/04 23:50:03;;;;;;;4.23;2.77;;;;;;;17.85;73.19;99089.47;7308059;39;20248;31
2023/08/04 23:55:35;;;;;;;3.05;2.50;;;;;;;17.83;72.61;99090.72;7312105;39;20260;31
